createdAt,value
2022-11-17T00:01:09.398Z,100339.13
2022-11-17T00:03:36.017Z,100332.22
2022-11-17T00:06:04.174Z,100324.47
2022-11-17T00:08:30.559Z,100332.56
2022-11-17T00:11:00.855Z,100328.28
2022-11-17T00:13:45.934Z,100319.59
2022-11-17T00:16:16.525Z,100324.06
2022-11-17T00:19:01.517Z,100319.63
2022-11-17T00:21:28.861Z,100309.19
2022-11-17T00:23:55.767Z,100308.31
2022-11-17T00:26:23.416Z,100315.34
2022-11-17T00:28:56.822Z,100312.75
2022-11-17T00:31:42.353Z,100318.91
2022-11-17T00:34:12.195Z,100304.16
2022-11-17T00:36:41.083Z,100299.75
2022-11-17T00:39:08.681Z,100296.34
2022-11-17T00:41:35.075Z,100287.72
2022-11-17T00:44:01.393Z,100279.88
2022-11-17T00:46:27.737Z,100280.66
2022-11-17T00:48:54.161Z,100276.28
2022-11-17T00:51:20.519Z,100283.19
2022-11-17T00:53:47.004Z,100280.59
2022-11-17T00:56:13.410Z,100289.28
2022-11-17T00:58:39.680Z,100289.25
2022-11-17T01:01:06.222Z,100277.97
2022-11-17T01:03:34.202Z,100265.75
2022-11-17T01:06:04.815Z,100274.44
2022-11-17T01:08:31.489Z,100271.81
2022-11-17T01:11:04.077Z,100268.31
2022-11-17T01:13:30.370Z,100256.06
2022-11-17T01:16:01.025Z,100273.47
2022-11-17T01:18:27.632Z,100262.97
2022-11-17T01:20:53.924Z,100281.28
2022-11-17T01:23:20.298Z,100277.84
2022-11-17T01:25:46.592Z,100272.59
2022-11-17T01:28:12.874Z,100263.09
2022-11-17T01:30:39.156Z,100274.59
2022-11-17T01:33:05.444Z,100266.75
2022-11-17T01:35:33.758Z,100265.84
2022-11-17T01:38:00.094Z,100257.97
2022-11-17T01:40:26.380Z,100255.38
2022-11-17T01:42:52.700Z,100253.63
2022-11-17T01:45:20.587Z,100242.31
2022-11-17T01:47:46.882Z,100239.66
2022-11-17T01:50:19.956Z,100237.03
2022-11-17T01:52:47.032Z,100231.78
2022-11-17T01:55:13.316Z,100245.56
2022-11-17T01:57:45.322Z,100234.22
2022-11-17T02:00:12.165Z,100235.84
2022-11-17T02:02:39.422Z,100224.47
2022-11-17T02:05:05.768Z,100216.56
2022-11-17T02:07:34.333Z,100216.44
2022-11-17T02:10:02.450Z,100213.72
2022-11-17T02:12:31.136Z,100215.34
2022-11-17T02:14:57.425Z,100207.44
2022-11-17T02:17:24.489Z,100209.25
2022-11-17T02:20:00.174Z,100197.75
2022-11-17T02:22:35.430Z,100195.06
2022-11-17T02:25:16.445Z,100203.00
2022-11-17T02:27:45.811Z,100196.78
2022-11-17T02:30:13.888Z,100191.56
2022-11-17T02:32:46.220Z,100178.44
2022-11-17T02:35:15.491Z,100198.50
2022-11-17T02:38:00.576Z,100196.59
2022-11-17T02:40:31.129Z,100176.59
2022-11-17T02:43:20.062Z,100189.53
2022-11-17T02:45:56.719Z,100181.75
2022-11-17T02:48:26.849Z,100176.56
2022-11-17T02:50:53.645Z,100167.81
2022-11-17T02:53:20.864Z,100167.88
2022-11-17T02:55:51.360Z,100163.44
2022-11-17T02:58:17.954Z,100161.69
2022-11-17T03:00:51.049Z,100163.31
2022-11-17T03:03:37.826Z,100156.28
2022-11-17T03:06:13.499Z,100168.41
2022-11-17T03:08:47.056Z,100167.38
2022-11-17T03:11:13.625Z,100156.91
2022-11-17T03:14:06.179Z,100168.31
2022-11-17T03:16:37.392Z,100167.34
2022-11-17T03:19:22.425Z,100163.81
2022-11-17T03:22:07.436Z,100139.38
2022-11-17T03:24:36.837Z,100143.72
2022-11-17T03:27:09.871Z,100141.03
2022-11-17T03:29:38.925Z,100161.13
2022-11-17T03:32:07.826Z,100143.72
2022-11-17T03:34:37.263Z,100152.41
2022-11-17T03:37:05.780Z,100145.47
2022-11-17T03:39:36.329Z,100159.38
2022-11-17T03:42:14.846Z,100146.31
2022-11-17T03:44:43.090Z,100152.56
2022-11-17T03:47:12.284Z,100146.47
2022-11-17T03:49:42.052Z,100151.72
2022-11-17T03:52:08.412Z,100143.81
2022-11-17T03:54:35.595Z,100142.16
2022-11-17T03:57:08.096Z,100139.56
2022-11-17T03:59:34.364Z,100134.41
2022-11-17T04:02:00.728Z,100134.47
2022-11-17T04:04:47.291Z,100130.16
2022-11-17T04:07:13.586Z,100126.69
2022-11-17T04:09:39.912Z,100131.06
2022-11-17T04:12:25.398Z,100120.53
2022-11-17T04:15:12.211Z,100117.97
2022-11-17T04:17:38.645Z,100087.53
2022-11-17T04:20:05.140Z,100113.69
2022-11-17T04:22:31.476Z,100108.47
2022-11-17T04:24:57.747Z,100098.91
2022-11-17T04:27:42.492Z,100118.91
2022-11-17T04:30:09.109Z,100111.97
2022-11-17T04:32:35.399Z,100113.88
2022-11-17T04:35:01.688Z,100099.19
2022-11-17T04:37:28.040Z,100087.75
2022-11-17T04:39:54.380Z,100084.31
2022-11-17T04:42:20.674Z,100086.00
2022-11-17T04:44:46.952Z,100086.91
2022-11-17T04:47:13.964Z,100083.41
2022-11-17T04:49:40.361Z,100095.59
2022-11-17T04:52:06.681Z,100084.31
2022-11-17T04:54:33.113Z,100089.53
2022-11-17T04:56:59.486Z,100080.75
2022-11-17T04:59:25.789Z,100081.56
2022-11-17T05:01:52.106Z,100085.97
2022-11-17T05:04:39.636Z,100072.03
2022-11-17T05:07:06.538Z,100075.53
2022-11-17T05:09:33.078Z,100074.50
2022-11-17T05:12:18.215Z,100072.69
2022-11-17T05:14:44.619Z,100073.47
2022-11-17T05:17:11.961Z,100069.09
2022-11-17T05:19:39.277Z,100080.34
2022-11-17T05:22:38.436Z,100065.53
2022-11-17T05:25:04.988Z,100063.81
2022-11-17T05:27:31.577Z,100055.91
2022-11-17T05:29:57.875Z,100048.94
2022-11-17T05:32:24.170Z,100055.03
2022-11-17T05:34:50.719Z,100055.91
2022-11-17T05:37:17.078Z,100041.19
2022-11-17T05:39:43.363Z,100037.75
2022-11-17T05:42:09.654Z,100037.66
2022-11-17T05:44:35.944Z,100015.09
2022-11-17T05:47:02.273Z,100030.88
2022-11-17T05:49:28.675Z,100040.38
2022-11-17T05:51:55.019Z,100055.13
2022-11-17T05:54:21.351Z,100050.03
2022-11-17T05:56:53.164Z,100050.75
2022-11-17T05:59:28.929Z,100054.22
2022-11-17T06:01:55.191Z,100043.81
2022-11-17T06:04:21.700Z,100021.13
2022-11-17T06:06:48.342Z,100009.78
2022-11-17T06:09:15.200Z,100015.91
2022-11-17T06:11:41.525Z,100022.03
2022-11-17T06:14:07.870Z,100021.13
2022-11-17T06:16:37.372Z,100021.94
2022-11-17T06:19:07.654Z,100021.91
2022-11-17T06:22:04.392Z,100030.63
2022-11-17T06:24:20.991Z,100031.47
2022-11-17T06:26:47.298Z,100028.00
2022-11-17T06:29:14.675Z,100042.78
2022-11-17T06:31:41.562Z,100041.03
2022-11-17T06:34:08.720Z,100027.91
2022-11-17T06:36:35.001Z,100030.47
2022-11-17T06:39:01.355Z,100034.09
2022-11-17T06:41:27.643Z,100028.81
2022-11-17T06:43:53.919Z,100027.91
2022-11-17T06:46:20.239Z,100042.78
2022-11-17T06:48:46.604Z,100033.19
2022-11-17T06:51:12.912Z,100032.34
2022-11-17T06:53:39.195Z,100013.03
2022-11-17T06:56:05.668Z,100027.91
2022-11-17T06:58:32.973Z,100029.59
2022-11-17T07:01:06.979Z,100015.75
2022-11-17T07:03:34.540Z,100027.03
2022-11-17T07:06:01.518Z,100013.16
2022-11-17T07:08:28.312Z,100015.75
2022-11-17T07:10:54.786Z,100016.56
2022-11-17T07:13:22.324Z,100018.38
2022-11-17T07:15:50.096Z,100013.13
2022-11-17T07:18:17.714Z,100009.72
2022-11-17T07:20:44.075Z,100014.94
2022-11-17T07:23:10.522Z,100028.16
2022-11-17T07:25:36.924Z,100021.16
2022-11-17T07:28:03.276Z,100025.53
2022-11-17T07:30:29.761Z,100000.38
2022-11-17T07:32:57.868Z,100018.59
2022-11-17T07:35:24.219Z,100016.88
2022-11-17T07:37:50.515Z,100038.72
2022-11-17T07:40:16.801Z,100025.66
2022-11-17T07:42:47.781Z,100021.28
2022-11-17T07:45:14.071Z,100025.72
2022-11-17T07:47:40.338Z,100040.53
2022-11-17T07:50:06.719Z,100010.97
2022-11-17T07:52:37.263Z,100011.88
2022-11-17T07:55:06.835Z,100012.78
2022-11-17T07:57:33.871Z,100020.66
2022-11-17T08:00:00.208Z,100007.59
2022-11-17T08:02:28.401Z,100012.81
2022-11-17T08:04:54.705Z,100007.66
2022-11-17T08:07:21.103Z,100006.75
2022-11-17T08:09:47.411Z,100029.34
2022-11-17T08:12:13.684Z,100015.34
2022-11-17T08:14:39.991Z,100012.88
2022-11-17T08:17:06.282Z,100008.50
2022-11-17T08:19:32.560Z,100002.41
2022-11-17T08:21:58.856Z,99997.25
2022-11-17T08:24:25.232Z,99995.56
2022-11-17T08:26:51.863Z,99995.63
2022-11-17T08:29:18.205Z,99991.38
2022-11-17T08:31:46.164Z,100000.09
2022-11-17T08:34:12.466Z,99998.34
2022-11-17T08:36:40.002Z,99987.06
2022-11-17T08:39:06.312Z,99992.44
2022-11-17T08:41:32.680Z,99990.63
2022-11-17T08:43:58.972Z,99982.94
2022-11-17T08:46:26.487Z,99976.00
2022-11-17T08:48:56.881Z,99975.16
2022-11-17T08:51:23.749Z,99985.69
2022-11-17T08:53:50.041Z,99986.66
2022-11-17T08:56:16.318Z,99976.97
2022-11-17T08:58:43.789Z,99972.59
2022-11-17T09:01:11.404Z,99978.69
2022-11-17T09:03:37.853Z,99972.66
2022-11-17T09:06:04.900Z,99990.16
2022-11-17T09:08:45.611Z,99984.06
2022-11-17T09:11:14.321Z,99984.06
2022-11-17T09:13:40.772Z,99987.72
2022-11-17T09:16:08.470Z,100009.56
2022-11-17T09:18:36.803Z,99985.97
2022-11-17T09:21:04.743Z,100006.81
2022-11-17T09:23:31.648Z,99992.91
2022-11-17T09:25:58.746Z,99993.03
2022-11-17T09:28:25.782Z,99982.47
2022-11-17T09:30:52.595Z,99978.09
2022-11-17T09:33:19.406Z,99978.06
2022-11-17T09:35:45.934Z,99992.00
2022-11-17T09:38:12.411Z,99977.25
2022-11-17T09:40:40.174Z,99984.13
2022-11-17T09:43:17.917Z,99988.53
2022-11-17T09:45:46.945Z,99978.06
2022-11-17T09:48:40.222Z,99979.03
2022-11-17T09:51:04.772Z,99964.28
2022-11-17T09:53:39.490Z,99966.09
2022-11-17T09:56:08.313Z,99962.56
2022-11-17T09:58:39.945Z,99971.31
2022-11-17T10:01:10.045Z,99964.28
2022-11-17T10:03:43.683Z,99942.56
2022-11-17T10:06:13.771Z,99934.72
2022-11-17T10:08:58.529Z,99946.97
2022-11-17T10:11:33.989Z,99943.44
2022-11-17T10:14:06.336Z,99938.19
2022-11-17T10:16:32.631Z,99943.44
2022-11-17T10:18:58.933Z,99926.94
2022-11-17T10:21:28.420Z,99927.78
2022-11-17T10:23:58.339Z,99922.50
2022-11-17T10:26:24.838Z,99938.19
2022-11-17T10:29:08.958Z,99946.09
2022-11-17T10:31:45.726Z,99942.59
2022-11-17T10:34:12.795Z,99926.09
2022-11-17T10:36:47.525Z,99943.44
2022-11-17T10:39:33.890Z,99929.56
2022-11-17T10:42:02.442Z,99916.53
2022-11-17T10:44:30.290Z,99912.13
2022-11-17T10:47:02.404Z,99919.94
2022-11-17T10:49:36.495Z,99912.94
2022-11-17T10:52:06.686Z,99910.31
2022-11-17T10:54:33.044Z,99926.88
2022-11-17T10:57:00.196Z,99915.53
2022-11-17T10:59:41.180Z,99922.53
2022-11-17T11:02:26.311Z,99918.94
2022-11-17T11:05:12.845Z,99917.25
2022-11-17T11:07:39.358Z,99914.69
2022-11-17T11:10:16.703Z,99927.75
2022-11-17T11:12:46.392Z,99922.53
2022-11-17T11:15:19.068Z,99925.19
2022-11-17T11:17:45.390Z,99911.22
2022-11-17T11:20:16.149Z,99911.13
2022-11-17T11:22:42.419Z,99919.91
2022-11-17T11:25:20.574Z,99910.28
2022-11-17T11:28:05.475Z,99893.78
2022-11-17T11:30:36.407Z,99900.81
2022-11-17T11:33:02.798Z,99885.13
2022-11-17T11:35:37.962Z,99897.34
2022-11-17T11:38:22.529Z,99884.22
2022-11-17T11:40:58.957Z,99872.06
2022-11-17T11:43:39.327Z,99881.69
2022-11-17T11:46:15.203Z,99865.19
2022-11-17T11:48:41.586Z,99881.81
2022-11-17T11:51:13.638Z,99876.69
2022-11-17T11:54:09.623Z,99861.88
2022-11-17T11:56:40.499Z,99856.66
2022-11-17T11:59:15.604Z,99875.88
2022-11-17T12:01:53.096Z,99872.47
2022-11-17T12:04:22.211Z,99882.81
2022-11-17T12:06:49.920Z,99867.09
2022-11-17T12:09:33.208Z,99870.63
2022-11-17T12:12:00.507Z,99881.00
2022-11-17T12:14:28.007Z,99881.06
2022-11-17T12:17:01.480Z,99881.00
2022-11-17T12:19:57.333Z,99892.34
2022-11-17T12:22:29.745Z,99894.03
2022-11-17T12:24:59.065Z,99881.88
2022-11-17T12:27:42.300Z,99890.59
2022-11-17T12:30:27.442Z,99886.31
2022-11-17T12:32:53.955Z,99893.19
2022-11-17T12:35:23.157Z,99893.19
2022-11-17T12:37:49.483Z,99874.00
2022-11-17T12:40:38.835Z,99880.97
2022-11-17T12:43:25.385Z,99881.84
2022-11-17T12:45:57.850Z,99885.31
2022-11-17T12:48:34.349Z,99895.72
2022-11-17T12:51:04.804Z,99893.16
2022-11-17T12:53:51.729Z,99886.19
2022-11-17T12:56:17.999Z,99894.97
2022-11-17T12:59:10.383Z,99878.38
2022-11-17T13:01:50.375Z,99887.91
2022-11-17T13:04:18.824Z,99881.84
2022-11-17T13:07:01.864Z,99880.09
2022-11-17T13:09:29.719Z,99882.72
2022-11-17T13:12:00.407Z,99879.22
2022-11-17T13:14:26.741Z,99885.34
2022-11-17T13:16:53.072Z,99866.13
2022-11-17T13:19:25.543Z,99862.69
2022-11-17T13:21:57.969Z,99870.47
2022-11-17T13:27:51.106Z,99847.84
2022-11-17T13:30:23.155Z,99873.97
2022-11-17T13:32:49.738Z,99883.59
2022-11-17T13:35:26.414Z,99873.97
2022-11-17T13:38:06.258Z,99877.44
2022-11-17T13:40:34.407Z,99877.44
2022-11-17T13:43:01.861Z,99878.28
2022-11-17T13:45:28.149Z,99881.75
2022-11-17T13:47:54.798Z,99885.25
2022-11-17T13:50:23.892Z,99874.78
2022-11-17T13:52:56.455Z,99878.25
2022-11-17T13:55:23.216Z,99888.72
2022-11-17T13:57:58.100Z,99877.41
2022-11-17T14:00:25.093Z,99864.28
2022-11-17T14:02:52.795Z,99889.53
2022-11-17T14:05:21.660Z,99884.31
2022-11-17T14:07:49.354Z,99885.13
2022-11-17T14:10:21.582Z,99882.53
2022-11-17T14:12:52.531Z,99880.75
2022-11-17T14:15:22.765Z,99890.34
2022-11-17T14:17:59.211Z,99875.53
2022-11-17T14:20:25.602Z,99879.94
2022-11-17T14:23:10.389Z,99884.41
2022-11-17T14:25:50.088Z,99889.69
2022-11-17T14:28:20.654Z,99886.13
2022-11-17T14:30:47.485Z,99904.41
2022-11-17T14:33:14.059Z,99894.81
2022-11-17T14:35:40.488Z,99902.63
2022-11-17T14:38:09.199Z,99898.25
2022-11-17T14:40:35.487Z,99907.81
2022-11-17T14:43:01.771Z,99901.72
2022-11-17T14:45:28.286Z,99896.41
2022-11-17T14:47:54.562Z,99914.81
2022-11-17T14:50:20.870Z,99908.66
2022-11-17T14:52:47.208Z,99920.03
2022-11-17T14:55:14.072Z,99913.84
2022-11-17T14:57:40.839Z,99899.91
2022-11-17T15:00:08.202Z,99899.03
2022-11-17T15:02:34.844Z,99907.75
2022-11-17T15:05:01.478Z,99903.31
2022-11-17T15:07:28.201Z,99916.38
2022-11-17T15:09:54.789Z,99902.41
2022-11-17T15:12:21.592Z,99914.59
2022-11-17T15:14:48.077Z,99909.44
2022-11-17T15:17:14.917Z,99914.69
2022-11-17T15:19:41.534Z,99922.47
2022-11-17T15:22:07.935Z,99918.06
2022-11-17T15:24:34.224Z,99922.44
2022-11-17T15:27:00.547Z,99925.88
2022-11-17T15:29:26.916Z,99921.56
2022-11-17T15:31:53.715Z,99914.59
2022-11-17T15:34:20.689Z,99923.28
2022-11-17T15:36:47.732Z,99922.50
2022-11-17T15:39:14.634Z,99918.97
2022-11-17T15:41:41.246Z,99918.97
2022-11-17T15:44:07.562Z,99930.25
2022-11-17T15:46:33.846Z,99917.25
2022-11-17T15:49:00.232Z,99939.84
2022-11-17T15:51:27.232Z,99930.22
2022-11-17T15:53:56.313Z,99916.28
2022-11-17T15:56:23.884Z,99930.22
2022-11-17T15:58:56.631Z,99928.50
2022-11-17T16:01:27.040Z,99927.63
2022-11-17T16:03:57.164Z,99924.19
2022-11-17T16:06:23.500Z,99936.28
2022-11-17T16:08:49.828Z,99935.44
2022-11-17T16:11:16.231Z,99936.28
2022-11-17T16:13:42.573Z,99932.84
2022-11-17T16:16:12.356Z,99922.38
2022-11-17T16:18:39.265Z,99915.41
2022-11-17T16:21:06.851Z,99938.06
2022-11-17T16:23:40.278Z,99924.13
2022-11-17T16:26:06.710Z,99931.97
2022-11-17T16:28:33.156Z,99926.69
2022-11-17T16:30:59.457Z,99928.47
2022-11-17T16:33:26.210Z,99930.25
2022-11-17T16:35:52.494Z,99924.97
2022-11-17T16:38:18.941Z,99931.03
2022-11-17T16:40:45.290Z,99938.91
2022-11-17T16:43:12.716Z,99931.91
2022-11-17T16:45:44.006Z,99938.00
2022-11-17T16:48:10.743Z,99928.41
2022-11-17T16:50:37.574Z,99929.28
2022-11-17T16:53:04.662Z,99937.06
2022-11-17T16:55:37.821Z,99931.84
2022-11-17T16:58:05.057Z,99931.03
2022-11-17T17:00:32.337Z,99928.41
2022-11-17T17:02:58.711Z,99931.84
2022-11-17T17:05:25.324Z,99932.78
2022-11-17T17:07:51.731Z,99929.25
2022-11-17T17:10:18.119Z,99914.34
2022-11-17T17:12:44.604Z,99937.88
2022-11-17T17:15:11.429Z,99936.09
2022-11-17T17:17:38.334Z,99962.13
2022-11-17T17:20:04.841Z,99949.88
2022-11-17T17:22:31.217Z,99940.25
2022-11-17T17:25:01.160Z,99941.84
2022-11-17T17:27:29.541Z,99940.06
2022-11-17T17:29:56.982Z,99950.47
2022-11-17T17:32:23.439Z,99949.56
2022-11-17T17:34:50.030Z,99946.81
2022-11-17T17:37:16.786Z,99954.56
2022-11-17T17:39:43.215Z,99961.50
2022-11-17T17:42:09.537Z,99957.13
2022-11-17T17:44:35.818Z,99954.44
2022-11-17T17:47:02.244Z,99977.88
2022-11-17T17:49:28.531Z,99952.63
2022-11-17T17:51:54.864Z,99969.13
2022-11-17T17:54:23.871Z,99966.63
2022-11-17T17:56:50.223Z,99974.34
2022-11-17T17:59:17.077Z,99976.91
2022-11-17T18:01:45.932Z,99977.75
2022-11-17T18:04:15.851Z,99986.41
2022-11-17T18:06:45.872Z,99979.38
2022-11-17T18:09:14.481Z,99980.25
2022-11-17T18:11:45.788Z,99989.81
2022-11-17T18:14:13.053Z,99980.25
2022-11-17T18:16:39.456Z,99998.44
2022-11-17T18:19:07.267Z,99990.63
2022-11-17T18:21:33.809Z,100002.78
2022-11-17T18:24:01.234Z,100002.75
2022-11-17T18:26:32.147Z,99998.38
2022-11-17T18:29:02.359Z,99996.59
2022-11-17T18:31:29.879Z,99998.31
2022-11-17T18:33:57.638Z,100006.13
2022-11-17T18:36:24.874Z,100003.41
2022-11-17T18:38:52.569Z,100010.34
2022-11-17T18:41:19.535Z,100007.72
2022-11-17T18:43:45.915Z,100014.56
2022-11-17T18:46:22.107Z,100018.94
2022-11-17T18:48:51.470Z,100018.94
2022-11-17T18:51:22.318Z,100024.09
2022-11-17T18:53:49.523Z,100025.81
2022-11-17T18:56:16.702Z,100020.50
2022-11-17T18:58:43.323Z,100016.13
2022-11-17T19:01:14.707Z,100022.19
2022-11-17T19:03:41.707Z,100022.19
2022-11-17T19:06:09.467Z,100031.75
2022-11-17T19:08:36.106Z,100028.25
2022-11-17T19:11:06.283Z,100035.25
2022-11-17T19:13:34.093Z,100034.41
2022-11-17T19:16:14.311Z,100035.28
2022-11-17T19:18:40.710Z,100035.31
2022-11-17T19:21:10.876Z,100032.69
2022-11-17T19:23:38.250Z,100036.19
2022-11-17T19:26:08.797Z,100029.19
2022-11-17T19:28:36.632Z,100035.34
2022-11-17T19:31:04.158Z,100030.97
2022-11-17T19:33:31.471Z,100028.38
2022-11-17T19:36:01.831Z,100025.81
2022-11-17T19:38:28.310Z,100040.69
2022-11-17T19:40:54.889Z,100035.44
2022-11-17T19:43:21.691Z,100040.75
2022-11-17T19:45:47.981Z,100035.53
2022-11-17T19:48:14.395Z,100042.53
2022-11-17T19:50:40.668Z,100031.25
2022-11-17T19:53:06.947Z,100046.16
2022-11-17T19:55:34.115Z,100042.72
2022-11-17T19:58:00.614Z,100053.19
2022-11-17T20:00:27.193Z,100044.53
2022-11-17T20:02:53.483Z,100061.09
2022-11-17T20:05:19.744Z,100052.31
2022-11-17T20:07:46.092Z,100054.81
2022-11-17T20:10:12.533Z,100060.94
2022-11-17T20:12:38.822Z,100060.06
2022-11-17T20:15:05.257Z,100049.69
2022-11-17T20:17:31.527Z,100050.56
2022-11-17T20:19:57.819Z,100059.34
2022-11-17T20:22:24.880Z,100069.69
2022-11-17T20:24:51.181Z,100068.88
2022-11-17T20:27:17.545Z,100074.03
2022-11-17T20:29:44.541Z,100080.94
2022-11-17T20:32:11.694Z,100080.94
2022-11-17T20:34:37.975Z,100086.09
2022-11-17T20:37:04.298Z,100076.47
2022-11-17T20:39:30.596Z,100081.59
2022-11-17T20:41:56.876Z,100082.47
2022-11-17T20:44:26.182Z,100076.31
2022-11-17T20:46:53.066Z,100084.06
2022-11-17T20:49:19.383Z,100084.06
2022-11-17T20:51:45.666Z,100090.94
2022-11-17T20:54:12.603Z,100086.66
2022-11-17T20:56:39.355Z,100097.97
2022-11-17T20:59:05.826Z,100093.69
2022-11-17T21:01:32.311Z,100087.66
2022-11-17T21:03:58.654Z,100108.53
2022-11-17T21:06:25.082Z,100096.41
2022-11-17T21:08:52.095Z,100103.38
2022-11-17T21:11:38.351Z,100106.03
2022-11-17T21:14:05.523Z,100104.28
2022-11-17T21:16:32.084Z,100111.16
2022-11-17T21:18:58.600Z,100111.16
2022-11-17T21:21:24.986Z,100117.25
2022-11-17T21:23:55.085Z,100112.91
2022-11-17T21:26:22.773Z,100117.19
2022-11-17T21:28:49.642Z,100122.38
2022-11-17T21:31:17.262Z,100114.59
2022-11-17T21:33:44.293Z,100123.38
2022-11-17T21:36:11.932Z,100124.22
2022-11-17T21:38:38.523Z,100123.38
2022-11-17T21:41:06.410Z,100124.34
2022-11-17T21:43:35.406Z,100125.22
2022-11-17T21:46:05.375Z,100117.34
2022-11-17T21:48:32.150Z,100113.84
2022-11-17T21:50:59.574Z,100125.22
2022-11-17T21:53:26.467Z,100124.25
2022-11-17T21:55:52.748Z,100114.66
2022-11-17T21:58:19.070Z,100114.66
2022-11-17T22:00:45.408Z,100119.88
2022-11-17T22:03:11.707Z,100118.16
2022-11-17T22:05:38.053Z,100112.94
2022-11-17T22:08:04.487Z,100111.25
2022-11-17T22:10:30.762Z,100119.91
2022-11-17T22:12:57.086Z,100128.69
2022-11-17T22:15:23.350Z,100128.72
2022-11-17T22:17:49.746Z,100126.06
2022-11-17T22:20:16.245Z,100139.13
2022-11-17T22:22:42.515Z,100135.63
2022-11-17T22:25:37.547Z,100139.97
2022-11-17T22:27:55.405Z,100136.47
2022-11-17T22:30:21.701Z,100150.31
2022-11-17T22:32:48.006Z,100139.88
2022-11-17T22:35:14.357Z,100147.66
2022-11-17T22:37:40.708Z,100150.22
2022-11-17T22:40:07.166Z,100149.22
2022-11-17T22:42:33.445Z,100151.84
2022-11-17T22:44:59.718Z,100152.63
2022-11-17T22:47:25.999Z,100157.75
2022-11-17T22:49:52.272Z,100153.44
2022-11-17T22:52:18.547Z,100152.63
2022-11-17T22:54:44.868Z,100156.16
2022-11-17T22:57:11.140Z,100160.53
2022-11-17T22:59:37.422Z,100152.63
2022-11-17T23:02:03.724Z,100158.84
2022-11-17T23:04:30.013Z,100168.28
2022-11-17T23:06:56.365Z,100167.47
2022-11-17T23:09:22.728Z,100155.28
2022-11-17T23:11:49.362Z,100171.78
2022-11-17T23:14:15.705Z,100176.09
2022-11-17T23:16:42.205Z,100163.00
2022-11-17T23:19:11.582Z,100183.91
2022-11-17T23:21:37.943Z,100174.31
2022-11-17T23:24:04.417Z,100178.53
2022-11-17T23:26:30.778Z,100190.78
2022-11-17T23:28:57.979Z,100182.13
2022-11-17T23:31:24.264Z,100179.50
2022-11-17T23:33:50.701Z,100184.72
2022-11-17T23:36:18.418Z,100191.72
2022-11-17T23:38:45.198Z,100185.63
2022-11-17T23:41:12.926Z,100178.63
2022-11-17T23:43:39.562Z,100190.75
2022-11-17T23:46:16.261Z,100207.25
2022-11-17T23:48:43.282Z,100204.66
2022-11-17T23:51:13.979Z,100203.78
2022-11-17T23:53:40.536Z,100213.34
2022-11-17T23:56:07.021Z,100211.66
2022-11-17T23:58:33.417Z,100208.16
